テラス・B・レットサム国際空港の過去48時間の天気

テラス・B・レットサム国際空港 (Beef Island, Tortola)

現在時刻: 9/23 07:25 AST (9/23 11:25 UTC) 以下の時間は現地時間です。

過去48時間のMETAR気象情報
時間 風向 風速(m/s) 視程 気温(℃) 湿度(%) 気圧(hPa) 天気現象
23 07:00 5 10km以上 29 79 1012 弱いしゅう雨
22 22:00 5 10km以上 29 74 1013
22 21:00 5 10km以上 30 75 1013
22 20:00 6 10km以上 30 70 1012
22 19:00 7 10km以上 30 70 1012
22 18:00 6 10km以上 30 70 1012
22 17:00 6 10km以上 31 62 1012
22 16:00 5 10km以上 32 59 1012
TUPJ 231100Z 08010KT 10SM -SHRA BKN018 29/25 A2989 RMK Q1012 VIS16KM
TUPJ 230200Z 08010KT 10SM FEW019 29/24 A2991 RMK Q1012 VIS16KM
TUPJ 230100Z 08009KT 10SM SCT019 30/25 A2991 RMK Q1012 VIS16KM
TUPJ 230000Z 09012KT 10SM SCT019 30/24 A2989 RMK Q1012 VIS16KM
TUPJ 222300Z 09013KT 10SM SCT020 30/24 A2987 RMK Q1011 VIS16KM
TUPJ 222200Z 10011KT 10SM SCT020 30/24 A2987 RMK Q1011 VIS16KM
TUPJ 222100Z 09011KT 10SM SCT023 31/23 A2987 RMK Q1011 VIS16KM
TUPJ 222000Z 10010KT 10SM FEW025 32/23 A2987 RMK Q1011 VIS16KM